TAF and METAR

No METAR available for Inca Manco Capac Airport

TAF for Inca Manco Capac Airport

TAF SPJL 162300Z 1700/1724 12006KT 9000 BKN012 TX18/1718Z TNM04/1710Z FM170600 VRB03KT 9999 SCT015 FM171800 04007KT 9999 SCT020 FM172300 12006KT 9000 BKN010
Report created 17. jul 01:00

between 17. jul 02:00 - 17. jul 02:00

wind 6 knots from ESE (120°) visibility 9000 meters broken clouds (~75% cover) at 1200 feet Max temperature 18° expected today at around 20 o'clock Min temperature -04° expected today at around 12 o'clock

From 17. jul 08:00

wind 3 knots from various directions visibility > 10km scattered clouds (~50% cover) at 1500 feet

From 17. jul 20:00

wind 7 knots from NE (040°) visibility > 10km scattered clouds (~50% cover) at 2000 feet

From 18. jul 01:00

wind 6 knots from ESE (120°) visibility 9000 meters broken clouds (~75% cover) at 1000 feet